»·PEaware :: FDX710 KBUR-KLAS

FDX710 :: KBUR-KLAS

FLIGHT INFORMATION

Flight Status: Arrived
Operator:
Federal Express
More flights by this operator :: More flights under this callsign
Pilot: Ryan C. (15122)
Aircraft: BOEING 727-200
(B722)
More flights by this aircraft type
Origin: KBUR Bob Hope-Burbank
United States
Destination: KLAS McCarran Intl
United States
More flights between these airports :: More routes between these airports
Route: +VNY3 DAG CLARR3
File this flight plan on PilotEdge
Remarks:
Altitude:
(Current/Filed)
29,000ft
Speed:
(Current/Filed)
400kts
Departed: 10-Feb-19 01:54 PM
Arrived: 10-Feb-19 02:38 PM
Distance/Time
Traveled:
195nm/0:44
Distance/Time
To Go:
Arrived

Flight Plot

Page will automatically refresh every two minutes.

Flight plan parsing failed; only flown route is shown


Map Options




Map Legend


Flown Route
Filed Route
Departure Airport
Arrival Airport
Navaid (VOR, NDB)
Fix

Horizontal Profiles

Position Reports

Time Latitude Longitude Heading Altitude Ground
Speed
10-Feb-19 13:23 34.196171 -118.359560 179 789ft 0kts
10-Feb-19 13:24 34.196171 -118.359560 179 789ft 0kts
10-Feb-19 13:25 34.196171 -118.359560 179 789ft 0kts
10-Feb-19 13:26 34.196171 -118.359560 179 789ft 0kts
10-Feb-19 13:27 34.196171 -118.359560 179 789ft 0kts
10-Feb-19 13:28 34.196171 -118.359560 179 789ft 0kts
10-Feb-19 13:29 34.196171 -118.359560 179 789ft 0kts
10-Feb-19 13:30 34.196171 -118.359560 179 789ft 0kts
10-Feb-19 13:31 34.196171 -118.359560 179 789ft 0kts
10-Feb-19 13:32 34.196171 -118.359560 179 789ft 0kts
10-Feb-19 13:33 34.196171 -118.359560 179 789ft 0kts
10-Feb-19 13:34 34.196171 -118.359560 179 789ft 0kts
10-Feb-19 13:35 34.196171 -118.359560 179 789ft 0kts
10-Feb-19 13:36 34.196171 -118.359560 179 789ft 0kts
10-Feb-19 13:37 34.196171 -118.359560 179 789ft 0kts
10-Feb-19 13:38 34.196171 -118.359560 179 789ft 0kts
10-Feb-19 13:39 34.196171 -118.359560 179 789ft 0kts
10-Feb-19 13:40 34.196171 -118.359560 179 789ft 0kts
10-Feb-19 13:41 34.196171 -118.359560 179 789ft 0kts
10-Feb-19 13:42 34.196647 -118.359646 143 789ft 2kts
10-Feb-19 13:43 34.196833 -118.360295 91 789ft 2kts
10-Feb-19 13:44 34.196844 -118.360944 91 789ft 0kts
10-Feb-19 13:45 34.196844 -118.360944 91 789ft 0kts
10-Feb-19 13:46 34.196844 -118.360944 91 789ft 0kts
10-Feb-19 13:47 34.196811 -118.359253 91 789ft 17kts
10-Feb-19 13:48 34.198812 -118.357939 358 789ft 2kts
10-Feb-19 13:49 34.203386 -118.359120 347 789ft 20kts
10-Feb-19 13:50 34.209526 -118.360816 347 789ft 24kts
10-Feb-19 13:51 34.211707 -118.361374 6 789ft 1kts
10-Feb-19 13:52 34.211969 -118.360339 165 789ft 0kts
10-Feb-19 13:53 34.186437 -118.353547 183 1556ft 147kts
10-Feb-19 13:54 34.151321 -118.391649 225 3354ft 230kts
10-Feb-19 13:55 34.128221 -118.459093 296 7716ft 250kts
10-Feb-19 13:56 34.197206 -118.470227 11 11357ft 305kts
10-Feb-19 13:57 34.281091 -118.427590 40 13608ft 372kts
10-Feb-19 13:58 34.355418 -118.351182 32 17104ft 364kts
10-Feb-19 13:59 34.434870 -118.270741 34 19540ft 385kts
10-Feb-19 14:00 34.517715 -118.183457 33 21693ft 403kts
10-Feb-19 14:01 34.604704 -118.091899 34 23012ft 439kts
10-Feb-19 14:02 34.684699 -117.967815 65 22988ft 487kts
10-Feb-19 14:03 34.681464 -117.806816 104 22967ft 479kts
10-Feb-19 14:04 34.692415 -117.646953 74 22987ft 477kts
10-Feb-19 14:05 34.728669 -117.493775 70 22997ft 467kts
10-Feb-19 14:06 34.767347 -117.346200 71 23003ft 468kts
10-Feb-19 14:07 34.806339 -117.192105 71 22987ft 479kts
10-Feb-19 14:08 34.846353 -117.035802 71 22986ft 488kts
10-Feb-19 14:09 34.886933 -116.876604 72 22986ft 496kts
10-Feb-19 14:10 34.927663 -116.715679 72 22986ft 498kts
10-Feb-19 14:11 34.968296 -116.554218 72 22990ft 497kts
10-Feb-19 14:12 35.008664 -116.393246 73 22999ft 497kts
10-Feb-19 14:13 35.077811 -116.257252 23 22681ft 461kts
10-Feb-19 14:14 35.188565 -116.223493 9 21220ft 419kts
10-Feb-19 14:15 35.288991 -116.152967 36 19405ft 421kts
10-Feb-19 14:16 35.372494 -116.054645 42 17588ft 412kts
10-Feb-19 14:17 35.450779 -115.955317 43 15774ft 395kts
10-Feb-19 14:18 35.523902 -115.861314 43 13951ft 367kts
10-Feb-19 14:19 35.591787 -115.773633 43 13046ft 351kts
10-Feb-19 14:20 35.662490 -115.688719 41 12873ft 359kts
10-Feb-19 14:21 35.731520 -115.603205 44 11627ft 345kts
10-Feb-19 14:22 35.806737 -115.542854 0 10484ft 317kts
10-Feb-19 14:23 35.884409 -115.505345 58 10017ft 324kts
10-Feb-19 14:24 35.933476 -115.404622 60 9892ft 354kts
10-Feb-19 14:25 35.982678 -115.303184 60 8715ft 337kts
10-Feb-19 14:26 36.021517 -115.202587 89 7530ft 312kts
10-Feb-19 14:27 36.023959 -115.100061 101 6787ft 279kts
10-Feb-19 14:28 36.015094 -115.005202 102 5975ft 274kts
10-Feb-19 14:29 36.006300 -114.914456 102 5001ft 262kts
10-Feb-19 14:30 36.042363 -114.839606 9 4965ft 294kts
10-Feb-19 14:31 36.084014 -114.889052 252 5058ft 203kts
10-Feb-19 14:32 36.073866 -114.947979 247 4645ft 174kts
10-Feb-19 14:33 36.075550 -115.003570 260 4223ft 153kts
10-Feb-19 14:34 36.073681 -115.051945 263 3276ft 126kts
10-Feb-19 14:35 36.073728 -115.095511 261 2591ft 125kts
10-Feb-19 14:36 36.073724 -115.135341 265 2076ft 83kts
10-Feb-19 14:37 36.074744 -115.145949 300 2107ft 0kts
10-Feb-19 14:38 36.074744 -115.145949 300 2107ft 0kts
10-Feb-19 14:39 36.077716 -115.146816 324 2106ft 15kts
10-Feb-19 14:40 36.078264 -115.141620 89 2088ft 21kts
10-Feb-19 14:41 36.078263 -115.132224 89 2060ft 25kts
10-Feb-19 14:42 36.080406 -115.126366 359 2041ft 18kts
10-Feb-19 14:43 36.081213 -115.125715 89 2038ft 0kts
10-Feb-19 14:44 36.081213 -115.125715 89 2038ft 0kts
10-Feb-19 14:45 36.081213 -115.125715 89 2038ft 0kts
10-Feb-19 14:46 36.081213 -115.125715 89 2038ft 0kts
10-Feb-19 14:47 36.081213 -115.125715 89 2038ft 0kts

Navigation Log

Ident Type
Flight plan parsing failed, navigation log unavailable